Terminal Aerodrome Forecast
Issued by NWS

Home | Current Version | Previous Version | Text Only | Print | Product List | Glossary On
Versions: 1 2 3 4 5 6 7 8 9 10 11 12 13 14 15 16 17 18
000
FTUS41 KBOX 250522
TAFBED
TAF
KBED 250522Z 2506/2606 00000KT P6SM SKC
     FM250800 00000KT 5SM BR SKC
     FM251300 00000KT P6SM SKC
     FM251800 11004KT P6SM FEW045
     FM260500 00000KT 4SM BR SCT004=

USA.gov is the U.S. government's official web portal to all federal, state and local government web resources and services.